Time;durP1;ratioP1;P1;durP2;ratioP2;P2;SDS_P1;SDS_P2;PMS_P1;PMS_P2;Temp;Humidity;BMP_temperature;BMP_pressure;BME280_temperature;BME280_humidity;BME280_pressure;Samples;Min_cycle;Max_cycle;Signal;HPM_P1;HPM_P2
2022/09/17 05:00:17;;;;;;;5.15;1.75;;;12.70;97.20;;;;;;1727386;28;20565;-69
2022/09/17 05:01:08;;;;;;;5.90;1.85;;;12.70;97.20;;;;;;1727250;28;20253;-69
2022/09/17 05:01:59;;;;;;;3.00;1.30;;;12.70;97.20;;;;;;1726415;28;20208;-69
2022/09/17 05:02:52;;;;;;;2.00;1.10;;;12.70;97.20;;;;;;1727284;28;20566;-69
2022/09/17 05:03:44;;;;;;;4.60;1.95;;;12.70;97.20;;;;;;1727239;28;20200;-69
2022/09/17 05:04:35;;;;;;;3.83;1.55;;;12.70;97.20;;;;;;1726867;28;20200;-69
2022/09/17 05:05:27;;;;;;;5.13;1.77;;;12.70;97.20;;;;;;1727155;28;20645;-69
2022/09/17 05:06:17;;;;;;;4.95;1.70;;;12.70;97.20;;;;;;1727321;28;20601;-69
2022/09/17 05:07:09;;;;;;;4.30;1.60;;;12.70;97.20;;;;;;1727124;28;20594;-68
2022/09/17 05:08:00;;;;;;;4.03;1.35;;;12.70;97.20;;;;;;1726023;28;20228;-69
2022/09/17 05:08:52;;;;;;;3.83;1.20;;;12.70;97.20;;;;;;1727204;28;20553;-69
2022/09/17 05:09:43;;;;;;;5.18;1.90;;;12.60;97.20;;;;;;1727139;28;20227;-69
2022/09/17 05:10:34;;;;;;;6.50;1.70;;;12.60;97.20;;;;;;1727327;28;20280;-69
2022/09/17 05:11:25;;;;;;;3.55;1.25;;;12.60;97.20;;;;;;1727271;28;20207;-69
2022/09/17 05:12:17;;;;;;;4.23;1.70;;;12.60;97.20;;;;;;1727271;28;20207;-69
2022/09/17 05:13:08;;;;;;;2.58;1.40;;;12.60;97.20;;;;;;1727247;28;20213;-69
2022/09/17 05:13:59;;;;;;;7.23;1.50;;;12.60;97.20;;;;;;1720667;28;20197;-69
2022/09/17 05:14:50;;;;;;;3.20;1.48;;;12.60;97.20;;;;;;1720564;28;20581;-69
2022/09/17 05:15:43;;;;;;;3.33;1.33;;;12.50;97.20;;;;;;1720442;28;20591;-69
2022/09/17 05:16:34;;;;;;;2.70;1.40;;;12.50;97.20;;;;;;1720490;28;20336;-69
2022/09/17 05:17:26;;;;;;;4.30;1.53;;;12.50;97.20;;;;;;1720298;28;20201;-69
2022/09/17 05:18:16;;;;;;;7.20;1.65;;;12.50;97.20;;;;;;1720453;28;20774;-69
2022/09/17 05:19:08;;;;;;;3.50;1.60;;;12.50;97.20;;;;;;1720509;28;20258;-69
2022/09/17 05:19:59;;;;;;;6.40;1.60;;;12.50;97.20;;;;;;1720486;28;20205;-69
2022/09/17 05:20:51;;;;;;;5.73;1.73;;;12.50;97.20;;;;;;1720535;28;20208;-69
2022/09/17 05:21:41;;;;;;;6.47;1.35;;;12.50;97.20;;;;;;1720557;28;20225;-69
2022/09/17 05:22:33;;;;;;;3.20;1.50;;;12.50;97.20;;;;;;1720492;28;20201;-69
2022/09/17 05:23:24;;;;;;;2.78;1.27;;;12.50;97.20;;;;;;1720548;28;20232;-69
2022/09/17 05:24:15;;;;;;;4.50;2.30;;;12.50;97.20;;;;;;1720540;28;20930;-69
2022/09/17 05:25:07;;;;;;;7.00;1.60;;;12.50;97.20;;;;;;1721803;28;20205;-69
2022/09/17 05:25:59;;;;;;;2.83;1.30;;;12.50;97.20;;;;;;1727189;28;20256;-68
2022/09/17 05:26:50;;;;;;;1.70;1.10;;;12.50;97.20;;;;;;1727264;28;20351;-69
2022/09/17 05:27:42;;;;;;;6.87;2.23;;;12.50;97.20;;;;;;1726623;28;20714;-69
2022/09/17 05:28:33;;;;;;;2.65;1.25;;;12.50;97.20;;;;;;1727119;28;20201;-71
2022/09/17 05:29:24;;;;;;;4.30;1.50;;;12.50;97.20;;;;;;1727038;28;20192;-71
2022/09/17 05:30:15;;;;;;;4.53;1.60;;;12.50;97.20;;;;;;1727192;28;20454;-71
2022/09/17 05:31:08;;;;;;;5.50;1.47;;;12.60;97.20;;;;;;1727246;28;20200;-71
2022/09/17 05:31:59;;;;;;;4.70;1.83;;;12.60;97.20;;;;;;1727212;28;20454;-70
2022/09/17 05:32:59;;;;;;;2.70;1.40;;;12.60;97.20;;;;;;1727223;28;20207;-69
2022/09/17 05:33:49;;;;;;;3.35;1.52;;;12.60;97.20;;;;;;1727318;28;20205;-69
2022/09/17 05:34:41;;;;;;;4.43;1.37;;;12.60;97.20;;;;;;1727288;28;20211;-69
2022/09/17 05:35:34;;;;;;;2.65;1.45;;;12.60;97.20;;;;;;1726919;28;20197;-70
2022/09/17 05:36:26;;;;;;;2.75;1.30;;;12.60;97.20;;;;;;1727193;28;20196;-68
2022/09/17 05:37:17;;;;;;;3.72;1.30;;;12.60;97.20;;;;;;1726795;28;20200;-68
2022/09/17 05:38:08;;;;;;;8.60;1.87;;;12.60;97.20;;;;;;1727155;28;20212;-69
2022/09/17 05:38:59;;;;;;;5.78;1.80;;;12.60;97.20;;;;;;1727065;28;20529;-71
2022/09/17 05:39:51;;;;;;;3.50;1.80;;;12.60;97.20;;;;;;1727206;28;20569;-68
2022/09/17 05:40:41;;;;;;;2.85;1.02;;;12.60;97.20;;;;;;1727171;28;20574;-68
2022/09/17 05:41:34;;;;;;;4.60;1.30;;;12.60;97.20;;;;;;1726878;28;20307;-69
2022/09/17 05:42:25;;;;;;;2.85;1.30;;;12.60;97.20;;;;;;1727274;28;20615;-68
2022/09/17 05:43:17;;;;;;;3.13;1.27;;;12.60;97.20;;;;;;1726504;28;20510;-68
2022/09/17 05:44:08;;;;;;;4.80;1.40;;;12.60;97.20;;;;;;1727202;28;20451;-71
2022/09/17 05:45:00;;;;;;;3.70;1.35;;;12.60;97.20;;;;;;1726982;28;20204;-68
2022/09/17 05:45:53;;;;;;;8.52;1.85;;;12.60;97.20;;;;;;1726978;28;20227;-70
2022/09/17 05:46:46;;;;;;;4.13;1.38;;;12.60;97.20;;;;;;1728218;28;20823;-69
2022/09/17 05:47:37;;;;;;;3.47;1.38;;;12.60;97.20;;;;;;1728029;28;20200;-70
2022/09/17 05:48:29;;;;;;;3.77;1.67;;;12.50;97.20;;;;;;1727914;28;20196;-69
2022/09/17 05:49:20;;;;;;;6.50;1.40;;;12.50;97.20;;;;;;1727932;28;20266;-69
2022/09/17 05:50:12;;;;;;;3.97;1.40;;;12.50;97.20;;;;;;1727770;28;20253;-69
2022/09/17 05:51:03;;;;;;;3.70;1.40;;;12.50;97.20;;;;;;1727777;28;20827;-69
2022/09/17 05:51:55;;;;;;;4.13;1.60;;;12.50;97.20;;;;;;1728179;28;20311;-69
2022/09/17 05:52:45;;;;;;;4.47;1.35;;;12.50;97.20;;;;;;1728303;28;20435;-70
2022/09/17 05:53:37;;;;;;;4.53;1.73;;;12.50;97.20;;;;;;1728231;28;20196;-69
2022/09/17 05:54:28;;;;;;;3.13;1.42;;;12.50;97.20;;;;;;1728150;28;20219;-69
2022/09/17 05:55:21;;;;;;;4.47;1.83;;;12.40;97.20;;;;;;1728130;28;20291;-70
2022/09/17 05:56:12;;;;;;;4.75;1.10;;;12.40;97.20;;;;;;1728348;28;20205;-70
2022/09/17 05:57:05;;;;;;;2.70;1.50;;;12.40;97.20;;;;;;1728346;28;20255;-70
2022/09/17 05:57:55;;;;;;;3.15;1.65;;;12.30;97.20;;;;;;1727995;28;20200;-69
2022/09/17 05:58:48;;;;;;;5.13;1.40;;;12.30;97.20;;;;;;1726002;28;20207;-69
2022/09/17 05:59:39;;;;;;;5.10;1.60;;;12.40;97.20;;;;;;1724515;28;20197;-69
2022/09/17 06:00:30;;;;;;;5.37;2.00;;;12.30;97.20;;;;;;1728125;28;20204;-70
2022/09/17 06:01:21;;;;;;;5.05;2.17;;;12.30;97.20;;;;;;1728062;28;20204;-70
2022/09/17 06:02:14;;;;;;;4.60;1.73;;;12.30;97.20;;;;;;1728242;28;20196;-70
2022/09/17 06:03:05;;;;;;;3.50;1.50;;;12.30;97.20;;;;;;1728197;28;20209;-70
2022/09/17 06:03:57;;;;;;;3.67;1.60;;;12.30;97.20;;;;;;1728265;28;20280;-70
2022/09/17 06:04:48;;;;;;;3.13;2.33;;;12.30;97.20;;;;;;1728330;28;20200;-69
2022/09/17 06:05:40;;;;;;;5.83;1.80;;;12.30;97.20;;;;;;1728126;28;20283;-69
2022/09/17 06:06:31;;;;;;;4.30;1.52;;;12.30;97.20;;;;;;1728251;28;20200;-69
2022/09/17 06:07:23;;;;;;;9.30;1.73;;;12.30;97.20;;;;;;1727879;28;20251;-70
2022/09/17 06:08:14;;;;;;;4.68;1.70;;;12.30;97.20;;;;;;1728219;28;20443;-70
2022/09/17 06:09:06;;;;;;;3.43;1.70;;;12.30;97.20;;;;;;1728203;28;20196;-70
2022/09/17 06:09:56;;;;;;;6.55;1.80;;;12.30;97.20;;;;;;1727812;28;20204;-69
2022/09/17 06:10:48;;;;;;;4.10;1.37;;;12.30;97.20;;;;;;1728298;28;20218;-70
2022/09/17 06:11:39;;;;;;;5.43;2.10;;;12.30;97.20;;;;;;1728227;28;20209;-70
2022/09/17 06:12:31;;;;;;;3.53;1.60;;;12.30;97.20;;;;;;1728233;28;20279;-70
2022/09/17 06:13:21;;;;;;;4.68;1.70;;;12.30;97.20;;;;;;1728238;28;20662;-70
2022/09/17 06:14:14;;;;;;;3.83;1.73;;;12.30;97.20;;;;;;1728321;28;20342;-73
2022/09/17 06:15:05;;;;;;;2.90;1.30;;;12.30;97.20;;;;;;1728190;28;20205;-69
2022/09/17 06:15:57;;;;;;;6.80;1.60;;;12.30;97.20;;;;;;1728205;28;20637;-70
2022/09/17 06:16:48;;;;;;;4.13;1.50;;;12.30;97.20;;;;;;1728160;28;20576;-70
2022/09/17 06:17:42;;;;;;;2.67;1.80;;;12.30;97.20;;;;;;1727888;28;20200;-70
2022/09/17 06:18:33;;;;;;;3.60;1.80;;;12.30;97.20;;;;;;1728189;28;20196;-70
2022/09/17 06:19:24;;;;;;;5.90;1.80;;;12.30;97.20;;;;;;1728147;28;20206;-70
2022/09/17 06:20:15;;;;;;;6.53;1.90;;;12.30;97.20;;;;;;1728207;28;20208;-70
2022/09/17 06:21:07;;;;;;;4.17;1.80;;;12.30;97.20;;;;;;1728123;28;20196;-71
2022/09/17 06:21:57;;;;;;;2.75;1.40;;;12.30;97.20;;;;;;1728182;28;20474;-70
2022/09/17 06:22:49;;;;;;;6.07;2.30;;;12.30;97.20;;;;;;1728015;28;20193;-71
2022/09/17 06:23:42;;;;;;;2.58;1.40;;;12.40;97.20;;;;;;1727279;28;20196;-71
2022/09/17 06:24:33;;;;;;;4.47;1.77;;;12.40;97.20;;;;;;1727744;28;20276;-70
2022/09/17 06:25:25;;;;;;;5.38;2.53;;;12.40;97.20;;;;;;1728014;28;20197;-71
2022/09/17 06:26:17;;;;;;;4.10;1.40;;;12.40;97.20;;;;;;1727685;28;20694;-70
2022/09/17 06:27:08;;;;;;;4.47;1.90;;;12.50;97.20;;;;;;1727636;28;20228;-70
2022/09/17 06:28:02;;;;;;;7.80;1.87;;;12.50;97.20;;;;;;1728085;28;20694;-71
2022/09/17 06:28:52;;;;;;;1.65;1.55;;;12.50;97.20;;;;;;1728082;28;20446;-71
2022/09/17 06:29:44;;;;;;;6.10;2.07;;;12.50;97.20;;;;;;1728153;28;20218;-71
2022/09/17 06:30:35;;;;;;;4.40;1.83;;;12.50;97.20;;;;;;1728041;28;20228;-71
2022/09/17 06:31:27;;;;;;;5.32;1.58;;;12.50;97.20;;;;;;1728080;28;20207;-70
2022/09/17 06:32:18;;;;;;;3.60;1.60;;;12.50;97.20;;;;;;1728056;28;20258;-71
2022/09/17 06:33:11;;;;;;;5.23;1.70;;;12.50;97.20;;;;;;1728002;28;20663;-70
2022/09/17 06:34:04;;;;;;;3.17;1.70;;;12.50;97.20;;;;;;1728090;28;20228;-71
2022/09/17 06:34:56;;;;;;;4.32;1.80;;;12.50;97.20;;;;;;1728057;28;20207;-71
2022/09/17 06:35:47;;;;;;;3.53;1.80;;;12.50;97.20;;;;;;1728004;28;20232;-71
2022/09/17 06:36:39;;;;;;;5.57;1.93;;;12.60;97.20;;;;;;1728060;28;20200;-70
2022/09/17 06:37:31;;;;;;;5.63;2.00;;;12.60;97.20;;;;;;1727806;28;20200;-70
2022/09/17 06:38:23;;;;;;;4.90;2.13;;;12.60;97.20;;;;;;1727942;28;20251;-70
2022/09/17 06:39:14;;;;;;;2.60;1.48;;;12.60;97.20;;;;;;1728007;28;20200;-70
2022/09/17 06:40:07;;;;;;;3.50;1.70;;;12.60;97.20;;;;;;1728035;28;20655;-72
2022/09/17 06:40:58;;;;;;;4.57;1.50;;;12.60;97.20;;;;;;1727227;28;20562;-70
2022/09/17 06:41:50;;;;;;;4.60;2.43;;;12.60;97.20;;;;;;1727797;28;20214;-70
2022/09/17 06:42:41;;;;;;;5.40;1.70;;;12.60;97.20;;;;;;1727717;28;20199;-70
2022/09/17 06:43:33;;;;;;;5.05;1.58;;;12.60;97.20;;;;;;1727975;28;20196;-70
2022/09/17 06:44:23;;;;;;;4.57;1.60;;;12.60;97.20;;;;;;1727834;28;20288;-72
2022/09/17 06:45:15;;;;;;;5.67;2.13;;;12.60;97.20;;;;;;1728042;28;20213;-70
2022/09/17 06:46:07;;;;;;;6.40;1.63;;;12.60;97.20;;;;;;1727724;28;20239;-70
2022/09/17 06:46:59;;;;;;;6.47;1.80;;;12.60;97.20;;;;;;1727999;28;20685;-70
2022/09/17 06:47:50;;;;;;;4.53;1.67;;;12.60;97.20;;;;;;1727626;28;20200;-70
2022/09/17 06:48:43;;;;;;;6.40;1.77;;;12.60;97.20;;;;;;1727937;28;20200;-70
2022/09/17 06:49:34;;;;;;;5.22;2.00;;;12.60;97.20;;;;;;1727980;28;20957;-70
2022/09/17 06:50:25;;;;;;;3.60;1.73;;;12.60;97.20;;;;;;1727928;28;20715;-71
2022/09/17 06:51:16;;;;;;;7.72;1.75;;;12.70;97.20;;;;;;1727928;28;20209;-70
2022/09/17 06:52:08;;;;;;;4.27;1.97;;;12.70;97.20;;;;;;1727920;28;20205;-71
2022/09/17 06:52:59;;;;;;;4.03;1.70;;;12.70;97.20;;;;;;1728010;28;20236;-71
2022/09/17 06:53:50;;;;;;;6.20;2.30;;;12.70;97.20;;;;;;1727968;28;20208;-70
2022/09/17 06:54:41;;;;;;;3.92;1.80;;;12.70;97.20;;;;;;1727923;28;20203;-71
2022/09/17 06:55:34;;;;;;;2.40;1.70;;;12.70;97.20;;;;;;1727845;28;20200;-69
2022/09/17 06:56:24;;;;;;;5.30;1.85;;;12.70;97.20;;;;;;1727912;28;20228;-70
2022/09/17 06:57:16;;;;;;;4.30;1.70;;;12.70;97.20;;;;;;1727271;28;20265;-71
2022/09/17 06:58:07;;;;;;;4.53;2.28;;;12.70;97.20;;;;;;1727635;28;20205;-71
2022/09/17 06:58:59;;;;;;;3.83;2.10;;;12.80;97.20;;;;;;1727911;28;20209;-71
2022/09/17 06:59:50;;;;;;;8.38;2.25;;;12.80;97.20;;;;;;1727839;28;20201;-71
2022/09/17 07:00:42;;;;;;;3.97;1.88;;;12.80;97.20;;;;;;1727668;28;20594;-70
2022/09/17 07:01:33;;;;;;;3.50;1.83;;;12.80;97.20;;;;;;1727753;28;20203;-72
2022/09/17 07:02:25;;;;;;;2.27;1.57;;;12.90;97.20;;;;;;1727957;28;20291;-72
2022/09/17 07:03:15;;;;;;;2.05;1.58;;;12.90;97.20;;;;;;1727885;28;20205;-72
2022/09/17 07:04:08;;;;;;;2.43;1.47;;;12.90;97.20;;;;;;1727901;28;20205;-72
2022/09/17 07:04:59;;;;;;;4.80;1.50;;;12.90;97.20;;;;;;1727899;28;20208;-72
2022/09/17 07:05:51;;;;;;;4.53;1.83;;;12.90;97.20;;;;;;1727795;28;20247;-73
2022/09/17 07:06:42;;;;;;;2.95;1.90;;;12.90;97.20;;;;;;1727731;28;20203;-72
2022/09/17 07:07:34;;;;;;;3.83;1.85;;;12.90;97.20;;;;;;1727571;28;20283;-73
2022/09/17 07:08:25;;;;;;;3.78;1.50;;;12.90;97.20;;;;;;1727747;28;20225;-73
2022/09/17 07:09:17;;;;;;;3.95;1.80;;;12.80;97.20;;;;;;1727908;28;20255;-72
2022/09/17 07:10:08;;;;;;;2.75;1.50;;;12.80;97.20;;;;;;1727716;28;20208;-72
2022/09/17 07:11:00;;;;;;;2.70;1.53;;;12.70;97.20;;;;;;1727833;28;20211;-71
2022/09/17 07:11:50;;;;;;;4.00;1.70;;;12.70;97.20;;;;;;1727839;28;20197;-72
2022/09/17 07:12:42;;;;;;;4.37;1.63;;;12.70;97.20;;;;;;1727825;28;20204;-72
2022/09/17 07:13:33;;;;;;;3.45;1.73;;;12.70;97.20;;;;;;1727844;28;20197;-72
2022/09/17 07:14:25;;;;;;;5.53;1.90;;;12.70;97.20;;;;;;1727447;28;20202;-72
2022/09/17 07:15:15;;;;;;;4.68;2.22;;;12.70;97.20;;;;;;1726746;28;20452;-72
2022/09/17 07:16:08;;;;;;;4.13;1.90;;;12.70;97.20;;;;;;1727660;28;20240;-72
2022/09/17 07:16:58;;;;;;;3.15;1.40;;;12.70;97.20;;;;;;1727778;28;20219;-72
2022/09/17 07:17:50;;;;;;;2.80;1.50;;;12.60;97.20;;;;;;1727507;28;20207;-72
2022/09/17 07:18:41;;;;;;;3.38;1.67;;;12.70;97.20;;;;;;1727681;28;20604;-72
2022/09/17 07:19:34;;;;;;;4.97;2.20;;;12.60;97.20;;;;;;1727731;28;20215;-72
2022/09/17 07:20:25;;;;;;;7.32;1.95;;;12.70;97.20;;;;;;1727736;28;20621;-72
2022/09/17 07:21:17;;;;;;;4.33;1.97;;;12.70;97.20;;;;;;1727780;28;20201;-72
2022/09/17 07:22:07;;;;;;;5.25;1.88;;;12.70;97.20;;;;;;1727698;28;20231;-72
2022/09/17 07:22:59;;;;;;;6.20;2.10;;;12.60;97.20;;;;;;1727763;28;20203;-72
2022/09/17 07:23:50;;;;;;;6.78;1.80;;;12.60;97.20;;;;;;1727732;28;20482;-72
2022/09/17 07:24:42;;;;;;;7.40;2.70;;;12.60;97.20;;;;;;1727763;28;20620;-72
2022/09/17 07:25:33;;;;;;;6.88;2.10;;;12.60;97.20;;;;;;1727691;28;20211;-72
2022/09/17 07:26:24;;;;;;;2.30;1.83;;;12.60;97.20;;;;;;1727777;28;20214;-72
2022/09/17 07:27:15;;;;;;;3.38;1.40;;;12.60;97.20;;;;;;1727396;28;20200;-72
2022/09/17 07:28:07;;;;;;;4.03;1.80;;;12.50;97.20;;;;;;1727718;28;20208;-72
2022/09/17 07:28:58;;;;;;;4.15;1.73;;;12.50;97.20;;;;;;1727623;28;20200;-72
2022/09/17 07:29:50;;;;;;;7.25;1.73;;;12.50;97.20;;;;;;1727575;28;20207;-73
2022/09/17 07:30:40;;;;;;;4.93;2.28;;;12.50;97.20;;;;;;1727583;28;20613;-73
2022/09/17 07:31:32;;;;;;;2.40;1.60;;;12.50;97.20;;;;;;1727380;28;20628;-72
2022/09/17 07:32:23;;;;;;;5.47;1.70;;;12.50;97.20;;;;;;1727637;28;20676;-72
2022/09/17 07:33:16;;;;;;;2.40;1.60;;;12.50;97.20;;;;;;1727643;28;20232;-73
2022/09/17 07:34:07;;;;;;;4.25;1.85;;;12.50;97.20;;;;;;1727585;28;20223;-72
2022/09/17 07:35:00;;;;;;;6.00;1.90;;;12.50;97.20;;;;;;1727646;28;20200;-73
2022/09/17 07:35:54;;;;;;;2.80;2.00;;;12.40;97.20;;;;;;1727473;28;20220;-72
2022/09/17 07:36:45;;;;;;;5.07;2.53;;;12.50;97.20;;;;;;1727575;28;20200;-72
2022/09/17 07:37:36;;;;;;;2.75;1.90;;;12.40;97.20;;;;;;1727387;28;20208;-72
2022/09/17 07:38:30;;;;;;;5.00;2.03;;;12.40;97.20;;;;;;1727515;28;20204;-72
2022/09/17 07:39:20;;;;;;;4.60;2.03;;;12.50;97.20;;;;;;1727580;28;20458;-72
2022/09/17 07:40:12;;;;;;;4.53;2.93;;;12.40;97.20;;;;;;1727637;28;20204;-72
2022/09/17 07:41:04;;;;;;;4.22;1.95;;;12.50;97.20;;;;;;1727537;28;20208;-72
2022/09/17 07:41:56;;;;;;;3.28;1.85;;;12.50;97.20;;;;;;1727636;28;20607;-74
2022/09/17 07:42:47;;;;;;;4.18;1.95;;;12.50;97.20;;;;;;1723397;28;20193;-73
2022/09/17 07:43:39;;;;;;;3.43;2.10;;;12.50;97.20;;;;;;1727742;28;20203;-72
2022/09/17 07:44:30;;;;;;;4.75;1.90;;;12.50;97.20;;;;;;1727451;28;20212;-73
2022/09/17 07:45:22;;;;;;;4.07;1.80;;;12.60;97.20;;;;;;1727423;28;20713;-73
2022/09/17 07:46:14;;;;;;;2.55;1.75;;;12.60;97.20;;;;;;1727345;28;20451;-72
2022/09/17 07:47:07;;;;;;;4.35;2.35;;;12.60;97.20;;;;;;1727439;28;20196;-73
2022/09/17 07:47:57;;;;;;;4.90;2.35;;;12.60;97.20;;;;;;1727407;28;20220;-73
2022/09/17 07:48:50;;;;;;;3.83;1.83;;;12.60;97.20;;;;;;1721282;28;20678;-73
2022/09/17 07:49:41;;;;;;;2.10;1.83;;;12.60;97.20;;;;;;1720806;28;20220;-73
2022/09/17 07:50:34;;;;;;;4.97;2.30;;;12.60;97.20;;;;;;1720700;28;20280;-72
2022/09/17 07:51:27;;;;;;;5.15;3.00;;;12.60;97.20;;;;;;1720794;28;20236;-74
2022/09/17 07:52:18;;;;;;;6.35;3.38;;;12.60;97.20;;;;;;1720879;28;20201;-74
2022/09/17 07:53:09;;;;;;;6.28;4.20;;;12.60;97.20;;;;;;1720771;28;20209;-74
2022/09/17 07:54:01;;;;;;;7.77;4.40;;;12.60;97.20;;;;;;1720797;28;20201;-73
2022/09/17 07:54:51;;;;;;;5.85;3.35;;;12.60;97.20;;;;;;1720811;28;20201;-74
2022/09/17 07:55:50;;;;;;;5.60;3.80;;;12.60;97.20;;;;;;1720739;28;20220;-73
2022/09/17 07:56:41;;;;;;;4.22;3.47;;;12.70;97.20;;;;;;1720780;28;20596;-71
2022/09/17 07:57:33;;;;;;;4.47;3.40;;;12.60;97.20;;;;;;1720544;28;20553;-73
2022/09/17 07:58:28;;;;;;;4.60;3.53;;;12.70;97.20;;;;;;1720652;28;20228;-72
2022/09/17 07:59:20;;;;;;;5.18;3.38;;;12.60;97.20;;;;;;1720846;28;20257;-72
2022/09/17 08:00:13;;;;;;;3.65;2.90;;;12.60;97.20;;;;;;1720725;28;20236;-72
2022/09/17 08:01:07;;;;;;;3.42;2.50;;;12.60;97.20;;;;;;1720761;28;20201;-72
2022/09/17 08:01:57;;;;;;;4.18;2.40;;;12.60;97.20;;;;;;1720780;28;20205;-72
2022/09/17 08:02:54;;;;;;;4.00;2.80;;;12.60;97.20;;;;;;1720719;28;20201;-71
2022/09/17 08:03:48;;;;;;;2.75;2.05;;;12.60;97.20;;;;;;1720782;28;20236;-72
2022/09/17 08:04:42;;;;;;;4.60;3.05;;;12.60;97.20;;;;;;1720700;28;20239;-73
2022/09/17 08:05:34;;;;;;;3.63;2.40;;;12.60;97.20;;;;;;1720696;28;20201;-72
2022/09/17 08:06:27;;;;;;;2.88;1.85;;;12.60;97.20;;;;;;1720760;28;20208;-72
2022/09/17 08:07:18;;;;;;;3.50;2.05;;;12.60;97.20;;;;;;1720488;28;20898;-72
2022/09/17 08:08:10;;;;;;;4.13;2.40;;;12.60;97.20;;;;;;1720589;28;20611;-71
2022/09/17 08:09:00;;;;;;;2.80;2.10;;;12.60;97.20;;;;;;1720344;28;20675;-71
2022/09/17 08:09:52;;;;;;;5.10;3.07;;;12.60;97.20;;;;;;1720671;28;20655;-71
2022/09/17 08:10:43;;;;;;;3.25;2.40;;;12.60;97.20;;;;;;1720548;28;20205;-71
2022/09/17 08:11:34;;;;;;;3.00;2.03;;;12.60;97.20;;;;;;1720757;28;20211;-71
2022/09/17 08:12:26;;;;;;;3.35;2.10;;;12.60;97.20;;;;;;1720683;28;20208;-72
2022/09/17 08:13:17;;;;;;;3.13;2.05;;;12.60;97.20;;;;;;1720843;28;20660;-71
2022/09/17 08:14:10;;;;;;;2.45;1.40;;;12.60;97.20;;;;;;1720696;28;20205;-74
2022/09/17 08:15:01;;;;;;;5.60;1.80;;;12.60;97.20;;;;;;1720725;28;20296;-70
2022/09/17 08:15:56;;;;;;;4.78;1.92;;;12.60;97.20;;;;;;1720515;28;20232;-70
2022/09/17 08:16:48;;;;;;;3.10;1.80;;;12.60;97.20;;;;;;1720585;28;20201;-70
2022/09/17 08:17:42;;;;;;;5.43;2.30;;;12.60;97.20;;;;;;1720455;28;20201;-70
2022/09/17 08:18:34;;;;;;;3.50;1.70;;;12.50;97.20;;;;;;1720640;28;20314;-70
2022/09/17 08:19:28;;;;;;;5.03;2.03;;;12.50;97.20;;;;;;1720592;28;20201;-70
2022/09/17 08:20:20;;;;;;;4.68;1.90;;;12.50;97.20;;;;;;1720575;28;20228;-70
2022/09/17 08:21:15;;;;;;;4.32;2.00;;;12.50;97.20;;;;;;1720705;28;20343;-70
2022/09/17 08:22:07;;;;;;;3.33;1.80;;;12.50;97.20;;;;;;1720713;28;20683;-70
2022/09/17 08:22:58;;;;;;;3.22;1.75;;;12.50;97.20;;;;;;1720603;28;20201;-70
2022/09/17 08:23:50;;;;;;;5.53;2.03;;;12.50;97.20;;;;;;1720641;28;20201;-70
2022/09/17 08:24:41;;;;;;;2.30;2.10;;;12.50;97.20;;;;;;1720732;28;20208;-69
2022/09/17 08:25:33;;;;;;;3.47;1.83;;;12.50;97.20;;;;;;1720534;28;20201;-70
2022/09/17 08:26:24;;;;;;;4.60;1.90;;;12.50;97.20;;;;;;1720581;28;20451;-70
2022/09/17 08:27:15;;;;;;;5.05;2.00;;;12.50;97.20;;;;;;1720381;28;20200;-70
2022/09/17 08:28:06;;;;;;;4.10;2.15;;;12.50;97.20;;;;;;1720586;28;20581;-71
2022/09/17 08:28:58;;;;;;;5.20;2.00;;;12.50;97.20;;;;;;1720651;28;20201;-71
2022/09/17 08:29:49;;;;;;;2.60;1.98;;;12.50;97.20;;;;;;1720652;28;20853;-70
2022/09/17 08:30:40;;;;;;;3.20;2.03;;;12.50;97.20;;;;;;1720572;28;20683;-70
2022/09/17 08:31:32;;;;;;;3.25;1.80;;;12.50;97.20;;;;;;1720557;28;20204;-70
2022/09/17 08:32:24;;;;;;;3.95;1.90;;;12.50;97.20;;;;;;1720544;28;20208;-70
2022/09/17 08:33:15;;;;;;;2.78;1.63;;;12.50;97.20;;;;;;1720492;28;20205;-70
2022/09/17 08:34:08;;;;;;;2.28;1.70;;;12.50;97.20;;;;;;1720638;28;20211;-70
2022/09/17 08:34:59;;;;;;;3.85;2.15;;;12.50;97.20;;;;;;1720647;28;20266;-70
2022/09/17 08:35:52;;;;;;;2.40;2.13;;;12.50;97.20;;;;;;1720575;28;20279;-70
2022/09/17 08:36:44;;;;;;;4.88;1.90;;;12.50;97.20;;;;;;1720627;28;20452;-70
2022/09/17 08:37:36;;;;;;;3.58;2.15;;;12.50;97.20;;;;;;1720474;28;20672;-70
2022/09/17 08:38:28;;;;;;;3.65;2.05;;;12.50;97.20;;;;;;1720417;28;20209;-70
2022/09/17 08:39:20;;;;;;;3.33;2.00;;;12.50;97.20;;;;;;1720606;28;20219;-70
2022/09/17 08:40:16;;;;;;;3.75;2.10;;;12.50;97.20;;;;;;1720613;28;20205;-70
2022/09/17 08:41:20;;;;;;;2.88;1.98;;;12.50;97.20;;;;;;1720619;28;20221;-70
2022/09/17 08:42:20;;;;;;;3.20;1.98;;;12.50;97.20;;;;;;1720681;28;20206;-70
2022/09/17 08:43:18;;;;;;;2.22;1.70;;;12.60;97.20;;;;;;1720669;28;20201;-70
2022/09/17 08:44:20;;;;;;;4.45;2.63;;;12.60;97.20;;;;;;1720695;28;20696;-70
2022/09/17 08:45:17;;;;;;;4.60;1.80;;;12.70;97.20;;;;;;1720655;28;20205;-70
2022/09/17 08:46:09;;;;;;;4.53;2.08;;;12.70;97.20;;;;;;1720566;28;20257;-70
2022/09/17 08:47:08;;;;;;;2.40;2.15;;;12.80;97.20;;;;;;1720462;28;20686;-70
2022/09/17 08:48:03;;;;;;;5.28;2.00;;;12.80;97.20;;;;;;1720556;28;20209;-70
2022/09/17 08:49:22;;;;;;;4.75;2.17;;;12.80;97.20;;;;;;1720400;28;20205;-70
2022/09/17 08:50:16;;;;;;;5.80;2.15;;;12.90;97.20;;;;;;1720523;28;20210;-70
2022/09/17 08:51:16;;;;;;;3.05;2.20;;;12.90;97.20;;;;;;1720443;28;20224;-70
2022/09/17 08:52:33;;;;;;;5.30;2.17;;;13.00;97.20;;;;;;1720596;28;20209;-70
2022/09/17 08:53:39;;;;;;;5.00;2.08;;;13.00;97.20;;;;;;1720580;28;20293;-70
2022/09/17 08:54:37;;;;;;;4.13;1.92;;;13.00;97.20;;;;;;1720510;28;20610;-70
2022/09/17 08:55:36;;;;;;;2.83;1.90;;;13.10;97.20;;;;;;1720513;28;20202;-70
2022/09/17 08:56:32;;;;;;;2.60;1.75;;;13.10;97.20;;;;;;1720526;28;20585;-70
2022/09/17 08:57:31;;;;;;;5.63;2.65;;;13.10;97.20;;;;;;1720225;28;20239;-69
2022/09/17 08:58:43;;;;;;;6.15;2.80;;;13.10;97.20;;;;;;1720398;28;20209;-69
2022/09/17 08:59:38;;;;;;;3.17;2.00;;;13.10;97.20;;;;;;1720567;28;20197;-70
2022/09/17 09:00:36;;;;;;;5.05;2.78;;;13.10;97.20;;;;;;1720524;28;20236;-69
2022/09/17 09:01:35;;;;;;;5.90;2.55;;;13.10;97.20;;;;;;1720569;28;20660;-70
2022/09/17 09:02:40;;;;;;;5.95;2.50;;;13.20;97.20;;;;;;1720506;28;20673;-69
2022/09/17 09:03:45;;;;;;;3.20;2.70;;;13.20;97.20;;;;;;1723394;28;20200;-72
2022/09/17 09:04:53;;;;;;;7.18;3.25;;;13.20;97.20;;;;;;1727275;28;20209;-69
2022/09/17 09:05:46;;;;;;;5.80;2.97;;;13.30;97.20;;;;;;1727215;28;20567;-70
2022/09/17 09:06:45;;;;;;;3.78;2.55;;;13.30;97.20;;;;;;1727262;28;20204;-70
2022/09/17 09:07:43;;;;;;;5.18;2.90;;;13.40;97.20;;;;;;1727090;28;20692;-70
2022/09/17 09:08:38;;;;;;;8.70;3.10;;;13.50;97.20;;;;;;1727219;28;20201;-70
2022/09/17 09:09:37;;;;;;;10.63;2.80;;;13.60;97.20;;;;;;1727260;28;20193;-70
2022/09/17 09:10:32;;;;;;;9.65;2.90;;;13.80;97.20;;;;;;1725979;28;20201;-71
2022/09/17 09:11:27;;;;;;;6.20;2.45;;;13.90;97.20;;;;;;1724686;28;20231;-70
2022/09/17 09:12:24;;;;;;;7.28;2.20;;;14.00;97.20;;;;;;1724989;28;20204;-71
2022/09/17 09:13:18;;;;;;;5.93;2.45;;;14.10;97.20;;;;;;1724850;28;20686;-71
2022/09/17 09:14:17;;;;;;;7.78;2.53;;;14.20;97.20;;;;;;1724944;28;20239;-72
2022/09/17 09:15:31;;;;;;;8.05;2.25;;;14.30;97.20;;;;;;1724984;28;20212;-72
2022/09/17 09:16:24;;;;;;;6.22;2.72;;;14.40;97.20;;;;;;1724568;28;20207;-70
2022/09/17 09:17:18;;;;;;;7.03;2.30;;;14.50;97.20;;;;;;1724064;28;20279;-70
2022/09/17 09:18:17;;;;;;;6.20;2.42;;;14.60;97.20;;;;;;1725312;28;20196;-70
2022/09/17 09:19:19;;;;;;;9.80;2.65;;;14.60;97.20;;;;;;1724523;28;20262;-71
2022/09/17 09:20:17;;;;;;;5.80;2.50;;;14.70;97.20;;;;;;1724993;28;20205;-71
2022/09/17 09:21:23;;;;;;;6.68;2.50;;;14.70;97.20;;;;;;1725755;28;20189;-71
2022/09/17 09:22:37;;;;;;;8.27;2.55;;;14.70;97.20;;;;;;1726372;28;20208;-71
2022/09/17 09:23:41;;;;;;;7.47;2.30;;;14.70;97.20;;;;;;1725977;28;20230;-71
2022/09/17 09:24:41;;;;;;;6.10;2.10;;;14.60;97.20;;;;;;1726271;28;20731;-71
2022/09/17 09:25:41;;;;;;;7.60;2.40;;;14.50;97.20;;;;;;1726236;28;20227;-71
2022/09/17 09:26:40;;;;;;;4.85;2.08;;;14.40;97.20;;;;;;1726235;28;20196;-71
2022/09/17 09:27:37;;;;;;;9.18;2.33;;;14.40;97.20;;;;;;1726443;28;20695;-71
2022/09/17 09:28:42;;;;;;;6.93;2.38;;;14.40;97.20;;;;;;1725643;28;20271;-70
2022/09/17 09:29:40;;;;;;;8.55;2.15;;;14.40;97.20;;;;;;1725995;28;20212;-71
2022/09/17 09:30:46;;;;;;;9.57;2.80;;;14.40;97.20;;;;;;1726493;28;20185;-70
2022/09/17 09:32:01;;;;;;;8.43;2.45;;;14.40;97.20;;;;;;1726285;28;20227;-71
2022/09/17 09:32:58;;;;;;;10.15;2.53;;;14.40;97.20;;;;;;1726990;28;20287;-70
2022/09/17 09:33:50;;;;;;;5.03;2.30;;;14.40;97.20;;;;;;1726162;28;20219;-70
2022/09/17 09:34:42;;;;;;;5.93;2.45;;;14.50;97.20;;;;;;1725870;28;20799;-71
2022/09/17 09:35:35;;;;;;;6.65;2.72;;;14.50;97.20;;;;;;1726041;28;20211;-71
2022/09/17 09:36:29;;;;;;;7.65;2.13;;;14.60;97.20;;;;;;1726166;28;20203;-71
2022/09/17 09:37:24;;;;;;;5.60;2.15;;;14.60;97.20;;;;;;1726323;28;20216;-70